createdAt,value
2023-11-06T00:00:01.483Z,91080.44
2023-11-06T00:02:48.000Z,91077.09
2023-11-06T00:05:34.120Z,91085.72
2023-11-06T00:08:20.051Z,91089.03
2023-11-06T00:11:06.138Z,91084.94
2023-11-06T00:13:52.233Z,91090.19
2023-11-06T00:16:40.217Z,91092.81
2023-11-06T00:19:26.207Z,91102.06
2023-11-06T00:22:12.364Z,91108.28
2023-11-06T00:25:00.341Z,91097.19
2023-11-06T00:27:46.319Z,91105.78
2023-11-06T00:30:32.345Z,91105.06
2023-11-06T00:33:18.317Z,91104.06
2023-11-06T00:36:06.281Z,91093.13
2023-11-06T00:38:52.287Z,91100.56
2023-11-06T00:41:38.133Z,91109.66
2023-11-06T00:44:24.171Z,91113.03
2023-11-06T00:47:10.189Z,91108.09
2023-11-06T00:49:56.212Z,91114.13
2023-11-06T00:52:42.235Z,91120.13
2023-11-06T00:55:27.983Z,91123.53
2023-11-06T00:58:14.159Z,91110.00
2023-11-06T01:01:00.304Z,91123.50
2023-11-06T01:03:46.239Z,91123.50
2023-11-06T01:06:32.362Z,91124.28
2023-11-06T01:09:18.299Z,91125.75
2023-11-06T01:12:04.106Z,91127.31
2023-11-06T01:14:50.144Z,91133.84
2023-11-06T01:17:36.170Z,91125.81
2023-11-06T01:20:22.201Z,91135.16
2023-11-06T01:23:08.290Z,91138.16
2023-11-06T01:25:54.199Z,91137.81
2023-11-06T01:28:40.345Z,91133.25
2023-11-06T01:31:26.331Z,91139.72
2023-11-06T01:34:12.246Z,91139.59
2023-11-06T01:36:58.237Z,91140.44
2023-11-06T01:39:44.131Z,91136.97
2023-11-06T01:42:30.165Z,91125.34
2023-11-06T01:45:16.168Z,91124.19
2023-11-06T01:48:02.080Z,91122.28
2023-11-06T01:50:48.072Z,91126.88
2023-11-06T01:53:34.019Z,91120.41
2023-11-06T01:56:19.920Z,91128.72
2023-11-06T01:59:05.885Z,91124.19
2023-11-06T02:01:52.178Z,91126.44
2023-11-06T02:04:38.271Z,91121.88
2023-11-06T02:07:24.372Z,91129.06
2023-11-06T02:10:10.191Z,91119.72
2023-11-06T02:12:56.241Z,91129.25
2023-11-06T02:15:42.059Z,91118.66
2023-11-06T02:18:27.952Z,91115.09
2023-11-06T02:21:13.896Z,91119.47
2023-11-06T02:23:59.784Z,91118.34
2023-11-06T02:26:45.873Z,91116.22
2023-11-06T02:29:31.823Z,91124.13
2023-11-06T02:32:17.874Z,91133.19
2023-11-06T02:35:04.401Z,91129.75
2023-11-06T02:37:54.611Z,91131.13
2023-11-06T02:40:42.590Z,91136.47
2023-11-06T02:43:28.570Z,91127.97
2023-11-06T02:46:14.607Z,91130.66
2023-11-06T02:49:00.543Z,91144.38
2023-11-06T02:51:48.485Z,91138.47
2023-11-06T02:54:34.442Z,91146.97
2023-11-06T02:57:20.341Z,91140.69
2023-11-06T03:00:06.369Z,91149.78
2023-11-06T03:02:52.610Z,91142.63
2023-11-06T03:05:38.594Z,91142.59
2023-11-06T03:08:24.740Z,91142.91
2023-11-06T03:11:10.739Z,91146.00
2023-11-06T03:13:56.767Z,91145.91
2023-11-06T03:16:43.060Z,91142.84
2023-11-06T03:19:29.226Z,91152.03
2023-11-06T03:22:15.230Z,91155.22
2023-11-06T03:25:01.288Z,91153.16
2023-11-06T03:27:47.124Z,91155.13
2023-11-06T03:30:33.182Z,91147.41
2023-11-06T03:33:19.191Z,91162.72
2023-11-06T03:36:05.263Z,91157.19
2023-11-06T03:38:51.185Z,91159.94
2023-11-06T03:41:37.031Z,91161.69
2023-11-06T03:44:23.116Z,91161.75
2023-11-06T03:47:09.220Z,91171.00
2023-11-06T03:49:55.607Z,91175.53
2023-11-06T03:52:41.632Z,91178.50
2023-11-06T03:55:27.604Z,91187.06
2023-11-06T03:58:13.500Z,91186.94
2023-11-06T04:01:01.591Z,91187.19
2023-11-06T04:03:47.669Z,91174.31
2023-11-06T04:06:33.493Z,91186.25
2023-11-06T04:09:19.435Z,91181.91
2023-11-06T04:12:05.345Z,91185.53
2023-11-06T04:14:51.335Z,91177.19
2023-11-06T04:17:37.395Z,91186.25
2023-11-06T04:20:23.297Z,91182.91
2023-11-06T04:23:09.247Z,91176.03
2023-11-06T04:25:55.217Z,91178.41
2023-11-06T04:28:41.177Z,91172.66
2023-11-06T04:31:27.187Z,91166.97
2023-11-06T04:34:13.400Z,91181.44
2023-11-06T04:36:59.333Z,91179.16
2023-11-06T04:39:45.357Z,91177.03
2023-11-06T04:42:31.261Z,91181.53
2023-11-06T04:45:17.368Z,91188.31
2023-11-06T04:48:03.451Z,91184.38
2023-11-06T04:50:49.337Z,91188.28
2023-11-06T04:53:35.420Z,91188.38
2023-11-06T04:56:21.386Z,91187.53
2023-11-06T04:59:07.391Z,91187.63
2023-11-06T05:01:53.483Z,91186.38
2023-11-06T05:04:39.396Z,91184.16
2023-11-06T05:07:25.488Z,91180.88
2023-11-06T05:10:11.325Z,91180.47
2023-11-06T05:12:57.226Z,91184.91
2023-11-06T05:15:43.193Z,91177.63
2023-11-06T05:18:29.149Z,91181.47
2023-11-06T05:21:15.043Z,91184.09
2023-11-06T05:24:01.068Z,91181.59
2023-11-06T05:26:46.930Z,91186.63
2023-11-06T05:29:32.907Z,91183.19
2023-11-06T05:32:18.933Z,91186.78
2023-11-06T05:35:05.031Z,91194.00
2023-11-06T05:37:51.026Z,91192.38
2023-11-06T05:40:36.917Z,91191.31
2023-11-06T05:43:22.888Z,91187.22
2023-11-06T05:46:08.829Z,91193.13
2023-11-06T05:48:54.765Z,91196.88
2023-11-06T05:51:40.663Z,91188.06
2023-11-06T05:54:26.612Z,91204.34
2023-11-06T05:57:12.551Z,91213.34
2023-11-06T05:59:58.600Z,91217.19
2023-11-06T06:02:44.702Z,91212.53
2023-11-06T06:05:31.252Z,91216.88
2023-11-06T06:08:17.765Z,91214.09
2023-11-06T06:11:03.634Z,91222.78
2023-11-06T06:13:49.662Z,91213.88
2023-11-06T06:16:35.701Z,91221.50
2023-11-06T06:19:21.736Z,91231.28
2023-11-06T06:22:07.695Z,91230.44
2023-11-06T06:24:53.646Z,91246.56
2023-11-06T06:27:39.556Z,91254.72
2023-11-06T06:30:25.631Z,91247.63
2023-11-06T06:33:11.489Z,91253.31
2023-11-06T06:35:57.508Z,91256.16
2023-11-06T06:38:43.484Z,91261.53
2023-11-06T06:41:29.413Z,91266.72
2023-11-06T06:44:15.536Z,91264.00
2023-11-06T06:47:01.669Z,91271.28
2023-11-06T06:49:47.772Z,91272.97
2023-11-06T06:52:33.772Z,91268.03
2023-11-06T06:55:19.750Z,91270.00
2023-11-06T06:58:05.965Z,91277.06
2023-11-06T07:00:52.469Z,91283.47
2023-11-06T07:03:38.480Z,91288.63
2023-11-06T07:06:24.844Z,91293.53
2023-11-06T07:09:12.829Z,91292.09
2023-11-06T07:11:58.778Z,91306.28
2023-11-06T07:14:44.663Z,91307.41
2023-11-06T07:17:30.707Z,91300.69
2023-11-06T07:20:16.996Z,91308.50
2023-11-06T07:23:03.388Z,91305.81
2023-11-06T07:25:49.468Z,91297.22
2023-11-06T07:28:35.494Z,91306.22
2023-11-06T07:31:21.527Z,91310.34
2023-11-06T07:34:07.333Z,91310.00
2023-11-06T07:36:53.346Z,91311.94
2023-11-06T07:39:39.323Z,91310.75
2023-11-06T07:42:25.373Z,91320.72
2023-11-06T07:45:11.320Z,91315.28
2023-11-06T07:47:57.256Z,91314.69
2023-11-06T07:50:43.142Z,91310.59
2023-11-06T07:53:31.125Z,91319.09
2023-11-06T07:56:17.192Z,91328.63
2023-11-06T07:59:03.129Z,91315.84
2023-11-06T08:01:49.177Z,91327.41
2023-11-06T08:04:35.185Z,91329.63
2023-11-06T08:07:21.479Z,91336.53
2023-11-06T08:10:10.292Z,91333.59
2023-11-06T08:12:56.262Z,91336.25
2023-11-06T08:15:42.319Z,91338.53
2023-11-06T08:18:28.382Z,91344.78
2023-11-06T08:21:14.406Z,91347.84
2023-11-06T08:24:00.330Z,91354.09
2023-11-06T08:26:46.314Z,91352.44
2023-11-06T08:29:32.370Z,91347.72
2023-11-06T08:32:18.457Z,91354.31
2023-11-06T08:35:04.493Z,91360.13
2023-11-06T08:37:50.622Z,91367.91
2023-11-06T08:40:36.838Z,91362.06
2023-11-06T08:43:22.881Z,91365.19
2023-11-06T08:46:08.935Z,91371.28
2023-11-06T08:48:54.862Z,91386.22
2023-11-06T08:51:40.911Z,91388.50
2023-11-06T08:54:26.882Z,91387.78
2023-11-06T08:57:12.679Z,91401.94
2023-11-06T08:59:58.610Z,91403.00
2023-11-06T09:02:44.726Z,91400.38
2023-11-06T09:05:30.618Z,91404.56
2023-11-06T09:08:17.382Z,91406.31
2023-11-06T09:11:03.452Z,91410.81
2023-11-06T09:13:49.416Z,91407.97
2023-11-06T09:16:35.444Z,91400.88
2023-11-06T09:19:21.200Z,91400.19
2023-11-06T09:22:07.261Z,91402.66
2023-11-06T09:24:55.200Z,91422.41
2023-11-06T09:27:41.004Z,91419.38
2023-11-06T09:30:27.107Z,91420.78
2023-11-06T09:33:13.367Z,91415.81
2023-11-06T09:35:59.611Z,91424.59
2023-11-06T09:38:45.670Z,91420.88
2023-11-06T09:41:31.727Z,91419.72
2023-11-06T09:44:17.660Z,91417.28
2023-11-06T09:47:04.966Z,91422.34
2023-11-06T09:49:51.268Z,91420.25
2023-11-06T09:52:37.302Z,91434.69
2023-11-06T09:55:23.501Z,91435.72
2023-11-06T09:58:11.475Z,91428.38
2023-11-06T10:00:57.550Z,91429.38
2023-11-06T10:03:43.772Z,91434.13
2023-11-06T10:06:29.892Z,91426.91
2023-11-06T10:09:15.866Z,91440.88
2023-11-06T10:12:01.854Z,91431.13
2023-11-06T10:14:48.149Z,91436.09
2023-11-06T10:17:34.556Z,91436.13
2023-11-06T10:20:20.550Z,91433.41
2023-11-06T10:23:06.570Z,91444.84
2023-11-06T10:25:52.539Z,91450.00
2023-11-06T10:28:38.796Z,91446.16
2023-11-06T10:31:25.592Z,91446.94
2023-11-06T10:34:11.763Z,91432.50
2023-11-06T10:36:57.700Z,91431.41
2023-11-06T10:39:43.655Z,91435.72
2023-11-06T10:42:29.647Z,91431.81
2023-11-06T10:45:15.617Z,91441.34
2023-11-06T10:48:02.813Z,91437.75
2023-11-06T10:50:49.335Z,91441.84
2023-11-06T10:53:35.288Z,91435.91
2023-11-06T10:56:21.274Z,91444.00
2023-11-06T10:59:07.158Z,91443.41
2023-11-06T11:01:53.068Z,91441.59
2023-11-06T11:04:39.127Z,91436.66
2023-11-06T11:07:25.086Z,91426.94
2023-11-06T11:10:10.948Z,91432.53
2023-11-06T11:12:57.191Z,91432.97
2023-11-06T11:15:43.506Z,91433.25
2023-11-06T11:18:29.569Z,91436.66
2023-11-06T11:21:15.599Z,91442.41
2023-11-06T11:24:01.578Z,91432.41
2023-11-06T11:26:47.602Z,91436.94
2023-11-06T11:29:33.741Z,91432.41
2023-11-06T11:32:19.988Z,91428.03
2023-11-06T11:35:06.532Z,91437.09
2023-11-06T11:37:52.329Z,91428.13
2023-11-06T11:40:38.369Z,91425.19
2023-11-06T11:43:24.389Z,91441.34
2023-11-06T11:46:10.329Z,91437.97
2023-11-06T11:48:56.319Z,91453.22
2023-11-06T11:51:42.338Z,91444.63
2023-11-06T11:54:28.427Z,91441.50
2023-11-06T11:57:16.467Z,91449.84
2023-11-06T12:00:02.558Z,91440.53
2023-11-06T12:02:48.491Z,91439.31
2023-11-06T12:05:34.634Z,91452.66
2023-11-06T12:08:20.984Z,91455.97
2023-11-06T12:11:06.958Z,91443.25
2023-11-06T12:13:53.439Z,91449.75
2023-11-06T12:16:39.311Z,91444.31
2023-11-06T12:19:25.405Z,91443.88
2023-11-06T12:22:11.406Z,91453.38
2023-11-06T12:24:57.305Z,91458.59
2023-11-06T12:27:43.356Z,91459.69
2023-11-06T12:30:29.409Z,91464.69
2023-11-06T12:33:15.781Z,91457.53
2023-11-06T12:36:01.912Z,91461.31
2023-11-06T12:38:47.920Z,91462.78
2023-11-06T12:41:34.024Z,91454.41
2023-11-06T12:44:20.031Z,91460.03
2023-11-06T12:47:05.999Z,91458.53
2023-11-06T12:49:52.302Z,91459.69
2023-11-06T12:52:40.256Z,91451.66
2023-11-06T12:55:26.275Z,91450.28
2023-11-06T12:58:14.248Z,91452.50
2023-11-06T13:01:00.237Z,91448.06
2023-11-06T13:03:46.810Z,91455.63
2023-11-06T13:06:33.094Z,91458.09
2023-11-06T13:09:19.094Z,91456.31
2023-11-06T13:12:05.169Z,91446.13
2023-11-06T13:14:51.379Z,91450.94
2023-11-06T13:17:37.470Z,91452.16
2023-11-06T13:20:23.418Z,91449.59
2023-11-06T13:23:09.422Z,91445.78
2023-11-06T13:25:55.250Z,91448.88
2023-11-06T13:28:41.317Z,91447.03
2023-11-06T13:31:27.437Z,91441.69
2023-11-06T13:34:13.430Z,91442.50
2023-11-06T13:36:59.316Z,91440.25
2023-11-06T13:39:45.313Z,91448.47
2023-11-06T13:42:31.143Z,91444.75
2023-11-06T13:45:17.258Z,91444.75
2023-11-06T13:48:03.253Z,91433.50
2023-11-06T13:50:49.466Z,91422.59
2023-11-06T13:53:35.975Z,91422.19
2023-11-06T13:56:24.852Z,91425.19
2023-11-06T13:59:13.504Z,91432.75
2023-11-06T14:01:59.523Z,91429.75
2023-11-06T14:04:45.592Z,91443.03
2023-11-06T14:07:31.626Z,91446.13
2023-11-06T14:10:17.530Z,91450.25
2023-11-06T14:13:03.453Z,91452.25
2023-11-06T14:15:49.269Z,91460.91
2023-11-06T14:18:35.346Z,91455.44
2023-11-06T14:21:21.285Z,91466.00
2023-11-06T14:24:07.290Z,91463.53
2023-11-06T14:26:53.324Z,91461.25
2023-11-06T14:29:39.386Z,91467.28
2023-11-06T14:32:27.655Z,91469.88
2023-11-06T14:35:14.451Z,91474.31
2023-11-06T14:38:00.473Z,91470.78
2023-11-06T14:40:46.451Z,91475.44
2023-11-06T14:43:32.334Z,91475.19
2023-11-06T14:46:18.410Z,91477.41
2023-11-06T14:49:06.592Z,91484.19
2023-11-06T14:51:52.877Z,91488.72
2023-11-06T14:54:39.220Z,91492.88
2023-11-06T14:57:25.235Z,91494.69
2023-11-06T15:00:11.208Z,91494.31
2023-11-06T15:02:57.282Z,91492.03
2023-11-06T15:05:43.692Z,91477.69
2023-11-06T15:08:29.871Z,91493.84
2023-11-06T15:11:15.898Z,91497.47
2023-11-06T15:14:02.993Z,91501.59
2023-11-06T15:16:48.884Z,91500.19
2023-11-06T15:19:34.790Z,91502.84
2023-11-06T15:22:20.660Z,91512.06
2023-11-06T15:25:06.885Z,91495.88
2023-11-06T15:27:53.055Z,91510.66
2023-11-06T15:30:39.094Z,91505.41
2023-11-06T15:33:25.300Z,91511.19
2023-11-06T15:36:11.870Z,91517.28
2023-11-06T15:38:57.671Z,91515.94
2023-11-06T15:41:43.757Z,91526.59
2023-11-06T15:44:31.862Z,91525.44
2023-11-06T15:47:17.688Z,91536.38
2023-11-06T15:50:03.604Z,91539.34
2023-11-06T15:52:49.600Z,91557.16
2023-11-06T15:55:35.657Z,91562.34
2023-11-06T15:58:23.740Z,91579.63
2023-11-06T16:01:09.745Z,91588.56
2023-11-06T16:03:55.722Z,91597.59
2023-11-06T16:06:41.876Z,91607.13
2023-11-06T16:09:27.853Z,91618.47
2023-11-06T16:12:13.927Z,91604.44
2023-11-06T16:14:59.987Z,91592.81
2023-11-06T16:17:46.080Z,91602.53
2023-11-06T16:20:32.491Z,91627.94
2023-11-06T16:23:18.519Z,91633.44
2023-11-06T16:26:04.541Z,91642.19
2023-11-06T16:28:50.488Z,91628.25
2023-11-06T16:31:36.606Z,91631.31
2023-11-06T16:34:27.421Z,91650.22
2023-11-06T16:37:21.828Z,91656.59
2023-11-06T16:40:07.905Z,91632.69
2023-11-06T16:42:53.983Z,91632.84
2023-11-06T16:45:40.133Z,91633.19
2023-11-06T16:48:29.788Z,91628.84
2023-11-06T16:51:15.929Z,91641.34
2023-11-06T16:54:02.060Z,91647.72
2023-11-06T16:56:48.090Z,91643.22
2023-11-06T16:59:34.326Z,91638.38
2023-11-06T17:02:20.330Z,91646.00
2023-11-06T17:05:06.569Z,91650.84
2023-11-06T17:07:52.911Z,91638.75
2023-11-06T17:10:38.803Z,91657.78
2023-11-06T17:13:24.840Z,91688.22
2023-11-06T17:16:10.882Z,91652.84
2023-11-06T17:18:56.961Z,91654.19
2023-11-06T17:21:45.072Z,91655.50
2023-11-06T17:24:31.189Z,91646.28
2023-11-06T17:27:17.073Z,91651.72
2023-11-06T17:30:03.156Z,91658.81
2023-11-06T17:32:49.145Z,91653.03
2023-11-06T17:35:35.404Z,91646.09
2023-11-06T17:38:21.365Z,91652.91
2023-11-06T17:41:07.249Z,91663.16
2023-11-06T17:43:53.295Z,91668.13
2023-11-06T17:46:39.494Z,91670.78
2023-11-06T17:49:27.377Z,91668.25
2023-11-06T17:52:13.242Z,91662.44
2023-11-06T17:54:59.261Z,91655.63
2023-11-06T17:57:45.425Z,91669.50
2023-11-06T18:00:33.415Z,91665.22
2023-11-06T18:03:19.383Z,91668.34
2023-11-06T18:06:05.291Z,91671.81
2023-11-06T18:08:51.353Z,91674.94
2023-11-06T18:11:37.434Z,91678.06
2023-11-06T18:14:23.490Z,91693.63
2023-11-06T18:17:09.622Z,91684.34
2023-11-06T18:19:55.488Z,91688.56
2023-11-06T18:22:41.584Z,91687.59
2023-11-06T18:25:27.593Z,91679.91
2023-11-06T18:28:13.605Z,91693.78
2023-11-06T18:30:59.539Z,91691.81
2023-11-06T18:33:45.643Z,91693.00
2023-11-06T18:36:31.843Z,91697.84
2023-11-06T18:39:17.959Z,91704.47
2023-11-06T18:42:03.859Z,91714.94
2023-11-06T18:44:50.014Z,91725.22
2023-11-06T18:47:36.221Z,91718.81
2023-11-06T18:50:22.461Z,91715.88
2023-11-06T18:53:08.412Z,91710.84
2023-11-06T18:55:54.326Z,91719.66
2023-11-06T18:58:42.168Z,91716.16
2023-11-06T19:01:28.611Z,91725.16
2023-11-06T19:04:14.824Z,91733.25
2023-11-06T19:07:00.608Z,91730.56
2023-11-06T19:09:46.684Z,91731.38
2023-11-06T19:12:32.667Z,91744.25
2023-11-06T19:15:18.941Z,91735.22
2023-11-06T19:18:05.058Z,91737.84
2023-11-06T19:20:51.521Z,91729.63
2023-11-06T19:23:37.750Z,91728.63
2023-11-06T19:26:23.998Z,91722.28
2023-11-06T19:29:09.944Z,91714.47
2023-11-06T19:31:55.864Z,91715.50
2023-11-06T19:34:41.778Z,91716.56
2023-11-06T19:37:27.728Z,91720.75
2023-11-06T19:40:13.749Z,91715.66
2023-11-06T19:42:59.627Z,91724.88
2023-11-06T19:45:45.636Z,91720.78
2023-11-06T19:48:37.384Z,91729.94
2023-11-06T19:51:24.387Z,91737.78
2023-11-06T19:54:12.543Z,91734.72
2023-11-06T19:56:59.162Z,91745.06
2023-11-06T19:59:57.606Z,91756.31
2023-11-06T20:02:50.507Z,91751.63
2023-11-06T20:05:36.644Z,91759.38
2023-11-06T20:08:23.092Z,91764.59
2023-11-06T20:11:09.038Z,91758.88
2023-11-06T20:13:56.955Z,91770.66
2023-11-06T20:16:43.014Z,91772.41
2023-11-06T20:19:29.063Z,91775.72
2023-11-06T20:22:14.949Z,91776.19
2023-11-06T20:25:00.829Z,91775.56
2023-11-06T20:27:46.762Z,91781.88
2023-11-06T20:30:32.790Z,91788.97
2023-11-06T20:33:19.095Z,91783.94
2023-11-06T20:36:07.093Z,91793.13
2023-11-06T20:38:53.044Z,91792.47
2023-11-06T20:41:39.501Z,91786.03
2023-11-06T20:44:25.298Z,91782.78
2023-11-06T20:47:11.204Z,91788.78
2023-11-06T20:49:57.059Z,91786.47
2023-11-06T20:52:42.965Z,91787.72
2023-11-06T20:55:28.990Z,91795.09
2023-11-06T20:58:17.000Z,91799.91
2023-11-06T21:01:02.875Z,91797.63
2023-11-06T21:03:49.047Z,91793.06
2023-11-06T21:06:35.150Z,91795.41
2023-11-06T21:09:21.296Z,91791.59
2023-11-06T21:12:07.467Z,91789.84
2023-11-06T21:14:53.263Z,91790.13
2023-11-06T21:17:39.219Z,91784.19
2023-11-06T21:20:27.322Z,91789.13
2023-11-06T21:23:13.251Z,91780.72
2023-11-06T21:25:59.218Z,91784.97
2023-11-06T21:28:45.265Z,91787.59
2023-11-06T21:31:31.176Z,91788.28
2023-11-06T21:34:17.193Z,91790.09
2023-11-06T21:37:03.207Z,91783.13
2023-11-06T21:39:49.276Z,91774.81
2023-11-06T21:42:35.338Z,91770.75
2023-11-06T21:45:21.210Z,91772.59
2023-11-06T21:48:07.196Z,91776.09
2023-11-06T21:50:53.627Z,91782.63
2023-11-06T21:53:39.574Z,91784.81
2023-11-06T21:56:25.618Z,91784.59
2023-11-06T21:59:11.676Z,91790.16
2023-11-06T22:01:57.695Z,91791.31
2023-11-06T22:04:43.784Z,91782.78
2023-11-06T22:07:29.664Z,91791.72
2023-11-06T22:10:23.218Z,91789.91
2023-11-06T22:13:11.956Z,91802.63
2023-11-06T22:15:57.980Z,91798.94
2023-11-06T22:18:44.012Z,91795.50
2023-11-06T22:21:30.354Z,91792.88
2023-11-06T22:24:16.392Z,91807.94
2023-11-06T22:27:02.323Z,91795.38
2023-11-06T22:29:48.435Z,91800.56
2023-11-06T22:32:34.607Z,91797.22
2023-11-06T22:35:22.782Z,91797.97
2023-11-06T22:38:10.167Z,91802.13
2023-11-06T22:40:56.480Z,91802.94
2023-11-06T22:43:42.296Z,91794.91
2023-11-06T22:46:28.364Z,91802.28
2023-11-06T22:49:16.574Z,91807.44
2023-11-06T22:52:02.647Z,91807.81
2023-11-06T22:54:48.696Z,91811.03
2023-11-06T22:57:34.763Z,91810.47
2023-11-06T23:00:20.751Z,91814.50
2023-11-06T23:03:06.925Z,91813.59
2023-11-06T23:05:53.246Z,91806.59
2023-11-06T23:08:39.213Z,91815.13
2023-11-06T23:11:25.383Z,91810.72
2023-11-06T23:14:11.309Z,91810.56
2023-11-06T23:16:57.329Z,91815.94
2023-11-06T23:19:43.232Z,91812.66
2023-11-06T23:22:29.198Z,91818.78
2023-11-06T23:25:17.762Z,91822.56
2023-11-06T23:28:06.396Z,91821.66
2023-11-06T23:30:52.428Z,91817.38
2023-11-06T23:33:38.435Z,91823.25
2023-11-06T23:36:24.549Z,91820.47
2023-11-06T23:39:10.476Z,91820.50
2023-11-06T23:41:56.540Z,91813.44
2023-11-06T23:44:42.563Z,91816.13
2023-11-06T23:47:28.515Z,91812.03
2023-11-06T23:50:16.678Z,91813.22
2023-11-06T23:53:02.786Z,91815.81
2023-11-06T23:55:48.703Z,91828.38
2023-11-06T23:58:35.834Z,91817.63
